»·PEaware :: N112 KBUR-KLAS

N112 :: KBUR-KLAS

FLIGHT INFORMATION

Flight Status: Arrived
Operator: Privately registered:
United States
More flights under this callsign
Pilot: Carlos L. (41544)
Aircraft: Diamond DA-62
(DA62)
More flights by this aircraft type
Origin: KBUR Bob Hope-Burbank
United States
Destination: KLAS Harry Reid Intl
United States
More flights between these airports :: More routes between these airports
Route: VNY3 DAG CRESO5
File this flight plan on PilotEdge
Remarks: RMK / SIMBRIEF
Altitude:
(Current/Filed)
13,000ft
Speed:
(Current/Filed)
105kts
Departed: 26-Sep-22 01:31 PM
Arrived: 26-Sep-22 02:51 PM
Distance/Time
Traveled:
194nm/1:20
Distance/Time
To Go:
Arrived

Flight Plot

Page will automatically refresh every two minutes.

Flight plan parsing failed; only flown route is shown


Map Options




Map Legend


Flown Route
Filed Route
Departure Airport
Arrival Airport
Navaid (VOR, NDB)
Fix

Horizontal Profiles

Position Reports

Time Latitude Longitude Heading Altitude Ground
Speed
26-Sep-22 13:24 34.199942 -118.363269 179 723ft 0kts
26-Sep-22 13:25 34.199942 -118.363269 179 723ft 0kts
26-Sep-22 13:26 34.199942 -118.363269 179 723ft 0kts
26-Sep-22 13:27 34.199942 -118.363269 179 723ft 0kts
26-Sep-22 13:28 34.199095 -118.366649 270 724ft 21kts
26-Sep-22 13:29 34.198779 -118.368934 190 729ft 0kts
26-Sep-22 13:30 34.197871 -118.365814 91 724ft 68kts
26-Sep-22 13:31 34.184625 -118.347818 243 1921ft 122kts
26-Sep-22 13:32 34.161469 -118.379057 225 3523ft 128kts
26-Sep-22 13:33 34.150071 -118.418403 325 4394ft 159kts
26-Sep-22 13:34 34.193247 -118.427476 351 5512ft 159kts
26-Sep-22 13:35 34.237680 -118.435007 350 6616ft 162kts
26-Sep-22 13:36 34.280584 -118.442538 350 8126ft 150kts
26-Sep-22 13:37 34.321338 -118.449670 351 9703ft 147kts
26-Sep-22 13:38 34.361555 -118.456716 351 11281ft 143kts
26-Sep-22 13:39 34.395247 -118.441181 52 12862ft 142kts
26-Sep-22 13:40 34.424349 -118.394729 52 13012ft 195kts
26-Sep-22 13:41 34.458061 -118.341055 52 13007ft 202kts
26-Sep-22 13:42 34.492399 -118.286338 52 12989ft 204kts
26-Sep-22 13:43 34.526553 -118.231820 52 12988ft 203kts
26-Sep-22 13:44 34.560677 -118.177221 52 12987ft 202kts
26-Sep-22 13:45 34.594756 -118.122642 52 12989ft 203kts
26-Sep-22 13:46 34.628680 -118.067725 59 12988ft 203kts
26-Sep-22 13:47 34.638017 -118.003460 82 12974ft 186kts
26-Sep-22 13:48 34.645065 -117.939296 82 12981ft 194kts
26-Sep-22 13:49 34.652153 -117.874234 82 12984ft 195kts
26-Sep-22 13:50 34.659227 -117.809014 82 12983ft 195kts
26-Sep-22 13:51 34.668672 -117.744601 71 12982ft 193kts
26-Sep-22 13:52 34.685036 -117.682230 72 12982ft 193kts
26-Sep-22 13:53 34.701031 -117.619814 72 12982ft 193kts
26-Sep-22 13:54 34.717018 -117.557308 72 12982ft 194kts
26-Sep-22 13:55 34.733023 -117.494575 72 12982ft 193kts
26-Sep-22 13:56 34.748939 -117.432043 72 12982ft 193kts
26-Sep-22 13:57 34.764835 -117.369444 72 12982ft 194kts
26-Sep-22 13:58 34.780705 -117.306778 72 12983ft 194kts
26-Sep-22 13:59 34.796569 -117.243986 72 12983ft 194kts
26-Sep-22 14:00 34.812438 -117.181053 72 12985ft 195kts
26-Sep-22 14:01 34.828292 -117.117999 72 12985ft 195kts
26-Sep-22 14:02 34.844124 -117.054898 72 12984ft 194kts
26-Sep-22 14:03 34.859894 -116.991870 72 12983ft 194kts
26-Sep-22 14:04 34.875645 -116.928757 72 12984ft 195kts
26-Sep-22 14:05 34.891370 -116.865636 73 12985ft 195kts
26-Sep-22 14:06 34.907131 -116.802181 73 12985ft 195kts
26-Sep-22 14:07 34.922792 -116.739003 73 12985ft 195kts
26-Sep-22 14:08 34.938413 -116.675762 73 12985ft 194kts
26-Sep-22 14:09 34.953951 -116.612741 73 12984ft 194kts
26-Sep-22 14:10 34.974041 -116.551772 59 12984ft 194kts
26-Sep-22 14:11 34.999927 -116.493986 61 12985ft 194kts
26-Sep-22 14:12 35.025701 -116.435964 61 12985ft 194kts
26-Sep-22 14:13 35.051451 -116.377884 61 12986ft 195kts
26-Sep-22 14:14 35.077220 -116.319676 61 12985ft 195kts
26-Sep-22 14:15 35.103033 -116.261244 61 12987ft 195kts
26-Sep-22 14:16 35.128785 -116.202873 61 12987ft 195kts
26-Sep-22 14:17 35.154470 -116.144544 61 12988ft 196kts
26-Sep-22 14:18 35.180328 -116.085728 61 12988ft 195kts
26-Sep-22 14:19 35.205966 -116.027293 61 12987ft 195kts
26-Sep-22 14:20 35.231573 -115.968843 61 12987ft 195kts
26-Sep-22 14:21 35.257122 -115.910412 61 12986ft 194kts
26-Sep-22 14:22 35.282696 -115.851836 61 12985ft 195kts
26-Sep-22 14:23 35.307903 -115.794041 61 12488ft 187kts
26-Sep-22 14:24 35.341701 -115.745799 46 11852ft 191kts
26-Sep-22 14:25 35.377565 -115.698014 47 11329ft 188kts
26-Sep-22 14:26 35.412748 -115.651047 47 10985ft 182kts
26-Sep-22 14:27 35.448231 -115.603632 47 10993ft 189kts
26-Sep-22 14:28 35.483572 -115.556323 47 10990ft 187kts
26-Sep-22 14:29 35.518766 -115.509167 47 10990ft 187kts
26-Sep-22 14:30 35.554074 -115.461809 47 10994ft 188kts
26-Sep-22 14:31 35.589627 -115.414053 47 10953ft 189kts
26-Sep-22 14:32 35.625041 -115.366418 47 10953ft 188kts
26-Sep-22 14:33 35.660456 -115.318712 47 10953ft 188kts
26-Sep-22 14:34 35.695851 -115.270967 47 10952ft 188kts
26-Sep-22 14:35 35.731072 -115.223392 47 10951ft 188kts
26-Sep-22 14:36 35.766296 -115.175742 47 10952ft 188kts
26-Sep-22 14:37 35.805022 -115.134240 13 10792ft 194kts
26-Sep-22 14:38 35.862561 -115.119099 11 9122ft 201kts
26-Sep-22 14:39 35.910075 -115.106775 11 7573ft 168kts
26-Sep-22 14:40 35.954309 -115.095383 10 6943ft 158kts
26-Sep-22 14:41 35.997287 -115.084485 11 6944ft 161kts
26-Sep-22 14:42 36.046886 -115.071814 11 6955ft 191kts
26-Sep-22 14:43 36.099312 -115.058447 11 6954ft 193kts
26-Sep-22 14:44 36.152483 -115.044897 11 6837ft 194kts
26-Sep-22 14:45 36.200892 -115.051166 300 6363ft 178kts
26-Sep-22 14:46 36.198442 -115.099350 216 4753ft 151kts
26-Sep-22 14:47 36.162741 -115.120560 202 3527ft 123kts
26-Sep-22 14:48 36.134521 -115.136377 206 2858ft 110kts
26-Sep-22 14:49 36.109528 -115.150770 205 2310ft 98kts
26-Sep-22 14:50 36.090250 -115.161790 206 2136ft 34kts
26-Sep-22 14:51 36.088595 -115.161387 109 2144ft 0kts
26-Sep-22 14:52 36.088595 -115.161387 109 2144ft 0kts
26-Sep-22 14:53 36.087850 -115.159307 118 2133ft 11kts
26-Sep-22 14:54 36.086338 -115.155112 135 2120ft 15kts
26-Sep-22 14:55 36.085941 -115.154819 144 2120ft 0kts
26-Sep-22 14:56 36.085941 -115.154819 144 2120ft 0kts
26-Sep-22 14:57 36.085941 -115.154819 144 2120ft 0kts
26-Sep-22 14:58 36.085941 -115.154819 144 2120ft 0kts
26-Sep-22 14:59 36.085941 -115.154819 144 2120ft 0kts
26-Sep-22 15:00 36.085941 -115.154819 144 2120ft 0kts

Navigation Log

Ident Type
Flight plan parsing failed, navigation log unavailable